Hedley, Canada
Current Conditions -  °F | °C
As of 12:00 AM on Sunday 23 Nov 2014 (Local Time) from CYYF Reporting Station
Broken Clouds Broken Clouds  
Wind Chill: 28°   Ceiling: 6500
Heat Index: 36°   Visibility: 15mi
Dew Point: 32°   Wind: 10mph
Humidity: 87%   Direction: 180°S
Pressure: 30"   Gusts: 20mph
Location:  49.35°N, 120.08°W
Report Text: CYYF 230800Z 18009G17KT 15SM BKN065 BKN160 02/00 A3000 RMK SC5AC1 SLP172
Loading
Personal Weather Stations






























Interactive Weather Map New forecast layout! Learn more

10-Day Weather Forecast

Advertisements
Track Severe Weather on mobile